createdAt,value
2022-12-18T00:05:02.031Z,28.50
2022-12-18T00:10:05.487Z,29.90
2022-12-18T00:15:09.028Z,28.00
2022-12-18T00:20:12.891Z,27.90
2022-12-18T00:25:16.361Z,26.30
2022-12-18T00:30:19.789Z,26.60
2022-12-18T00:35:23.208Z,27.00
2022-12-18T00:40:26.709Z,27.20
2022-12-18T00:45:30.242Z,26.40
2022-12-18T00:50:33.811Z,26.50
2022-12-18T00:55:37.318Z,28.30
2022-12-18T01:00:40.817Z,27.30
2022-12-18T01:05:44.464Z,24.60
2022-12-18T01:10:47.976Z,24.20
2022-12-18T01:15:51.422Z,24.30
2022-12-18T01:20:54.900Z,24.70
2022-12-18T01:25:59.151Z,25.00
2022-12-18T01:31:02.694Z,28.40
2022-12-18T01:36:06.619Z,26.20
2022-12-18T01:41:10.079Z,26.60
2022-12-18T01:46:13.542Z,26.20
2022-12-18T01:51:17.025Z,25.10
2022-12-18T01:56:20.540Z,27.00
2022-12-18T02:01:24.084Z,26.50
2022-12-18T02:06:27.735Z,26.60
2022-12-18T02:11:33.418Z,26.30
2022-12-18T02:16:41.457Z,25.30
2022-12-18T02:21:45.028Z,24.50
2022-12-18T02:26:48.509Z,23.60
2022-12-18T02:31:53.616Z,25.10
2022-12-18T02:36:57.068Z,22.40
2022-12-18T02:42:00.494Z,25.10
2022-12-18T02:47:03.926Z,23.60
2022-12-18T02:52:07.463Z,23.20
2022-12-18T02:57:12.049Z,24.90
2022-12-18T03:02:15.589Z,24.30
2022-12-18T03:07:19.355Z,25.30
2022-12-18T03:12:26.869Z,24.20
2022-12-18T03:17:30.402Z,24.80
2022-12-18T03:22:33.858Z,23.10
2022-12-18T03:27:40.327Z,25.40
2022-12-18T03:32:43.837Z,25.50
2022-12-18T03:37:47.303Z,25.90
2022-12-18T03:42:50.815Z,26.90
2022-12-18T03:47:54.269Z,23.70
2022-12-18T03:52:57.702Z,27.20
2022-12-18T03:58:01.161Z,27.40
2022-12-18T04:03:04.656Z,26.10
2022-12-18T04:08:08.230Z,25.10
2022-12-18T04:13:13.924Z,24.00
2022-12-18T04:18:18.672Z,23.20
2022-12-18T04:23:22.112Z,24.20
2022-12-18T04:28:26.015Z,26.00
2022-12-18T04:33:29.584Z,25.10
2022-12-18T04:38:33.479Z,27.00
2022-12-18T04:43:38.864Z,23.30
2022-12-18T04:48:42.508Z,23.60
2022-12-18T04:53:45.997Z,24.80
2022-12-18T04:58:49.533Z,23.80
2022-12-18T05:03:53.116Z,28.80
2022-12-18T05:08:56.691Z,24.20
2022-12-18T05:14:03.062Z,25.00
2022-12-18T05:19:06.501Z,26.90
2022-12-18T05:24:11.456Z,24.00
2022-12-18T05:29:16.012Z,22.70
2022-12-18T05:34:19.663Z,24.20
2022-12-18T05:39:23.097Z,25.40
2022-12-18T05:44:26.592Z,26.40
2022-12-18T05:49:30.019Z,25.20
2022-12-18T05:54:37.584Z,27.00
2022-12-18T05:59:41.047Z,27.30
2022-12-18T06:04:47.231Z,25.20
2022-12-18T06:09:50.723Z,25.40
2022-12-18T06:14:55.436Z,24.00
2022-12-18T06:19:58.924Z,27.60
2022-12-18T06:25:06.836Z,23.20
2022-12-18T06:30:10.436Z,22.70
2022-12-18T06:35:14.919Z,21.60
2022-12-18T06:40:18.584Z,23.40
2022-12-18T06:45:22.308Z,25.80
2022-12-18T06:50:25.803Z,23.90
2022-12-18T06:55:29.282Z,23.90
2022-12-18T07:00:36.764Z,23.90
2022-12-18T07:05:41.197Z,24.00
2022-12-18T07:15:52.672Z,24.60
2022-12-18T07:20:57.793Z,25.10
2022-12-18T07:26:01.234Z,24.80
2022-12-18T07:31:04.777Z,23.00
2022-12-18T07:36:08.237Z,23.50
2022-12-18T07:41:11.720Z,25.30
2022-12-18T07:46:15.719Z,25.20
2022-12-18T07:51:19.182Z,28.90
2022-12-18T07:56:31.138Z,26.70
2022-12-18T08:01:35.175Z,27.00
2022-12-18T08:06:38.815Z,25.60
2022-12-18T08:11:42.333Z,29.00
2022-12-18T08:16:45.845Z,27.80
2022-12-18T08:21:49.404Z,26.40
2022-12-18T08:27:20.871Z,25.70
2022-12-18T08:37:19.904Z,28.80
2022-12-18T08:42:41.334Z,25.90
2022-12-18T08:47:44.868Z,29.70
2022-12-18T08:52:48.981Z,34.30
2022-12-18T08:57:52.445Z,34.70
2022-12-18T09:02:56.019Z,44.30
2022-12-18T09:07:59.770Z,33.60
2022-12-18T09:13:03.261Z,36.10
2022-12-18T09:18:06.732Z,37.80
2022-12-18T09:23:10.222Z,35.80
2022-12-18T09:28:13.642Z,40.00
2022-12-18T09:33:17.248Z,34.90
2022-12-18T09:38:24.236Z,42.00
2022-12-18T09:43:28.175Z,39.70
2022-12-18T09:48:31.620Z,38.40
2022-12-18T09:53:35.115Z,51.00
2022-12-18T09:58:38.817Z,38.70
2022-12-18T10:03:42.687Z,49.70
2022-12-18T10:08:46.127Z,40.00
2022-12-18T10:13:49.551Z,48.50
2022-12-18T10:18:52.980Z,39.80
2022-12-18T10:23:57.616Z,49.00
2022-12-18T10:29:05.550Z,43.30
2022-12-18T10:34:09.360Z,50.70
2022-12-18T10:39:12.929Z,53.10
2022-12-18T10:44:16.373Z,49.40
2022-12-18T10:49:19.854Z,44.00
2022-12-18T10:54:23.321Z,53.00
2022-12-18T10:59:26.785Z,48.30
2022-12-18T11:04:30.227Z,56.20
2022-12-18T11:09:33.728Z,54.30
2022-12-18T11:14:39.894Z,51.00
2022-12-18T11:19:45.764Z,54.40
2022-12-18T11:25:08.386Z,50.10
2022-12-18T11:35:16.110Z,50.50
2022-12-18T11:40:19.592Z,54.00
2022-12-18T11:45:23.194Z,48.60
2022-12-18T11:50:26.693Z,50.90
2022-12-18T11:55:30.324Z,53.90
2022-12-18T12:00:33.848Z,50.90
2022-12-18T12:05:37.283Z,51.00
2022-12-18T12:10:40.765Z,51.50
2022-12-18T12:15:44.389Z,55.40
2022-12-18T12:20:47.884Z,52.00
2022-12-18T12:25:51.369Z,50.30
2022-12-18T12:30:54.870Z,48.50
2022-12-18T12:35:58.509Z,48.70
2022-12-18T12:41:03.462Z,46.80
2022-12-18T12:46:07.732Z,50.40
2022-12-18T12:56:15.700Z,44.00
2022-12-18T13:01:23.275Z,45.40
2022-12-18T13:06:27.327Z,46.60
2022-12-18T13:11:48.782Z,50.80
2022-12-18T13:16:52.312Z,46.10
2022-12-18T13:21:56.166Z,43.60
2022-12-18T13:26:59.658Z,41.90
2022-12-18T13:32:03.147Z,45.20
2022-12-18T13:37:06.610Z,42.60
2022-12-18T13:42:10.133Z,42.80
2022-12-18T13:47:13.573Z,46.60
2022-12-18T13:52:18.145Z,40.30
2022-12-18T13:57:22.096Z,41.10
2022-12-18T14:02:25.831Z,42.50
2022-12-18T14:07:34.002Z,41.00
2022-12-18T14:13:01.139Z,36.80
2022-12-18T14:18:06.835Z,45.00
2022-12-18T14:23:10.305Z,41.90
2022-12-18T14:28:13.797Z,43.60
2022-12-18T14:33:17.326Z,43.20
2022-12-18T14:38:20.760Z,40.50
2022-12-18T14:43:24.316Z,43.80
2022-12-18T14:48:27.817Z,44.80
2022-12-18T14:53:31.297Z,44.00
2022-12-18T14:58:34.716Z,47.40
2022-12-18T15:03:38.688Z,46.80
2022-12-18T15:13:45.974Z,49.70
2022-12-18T15:18:49.843Z,50.40
2022-12-18T15:23:53.312Z,50.50
2022-12-18T15:28:57.160Z,48.00
2022-12-18T15:34:00.670Z,52.00
2022-12-18T15:39:06.488Z,52.10
2022-12-18T15:44:10.392Z,50.90
2022-12-18T15:49:13.818Z,47.40
2022-12-18T15:54:17.829Z,48.60
2022-12-18T15:59:21.264Z,50.00
2022-12-18T16:04:25.754Z,54.90
2022-12-18T16:09:29.213Z,53.30
2022-12-18T16:14:32.706Z,53.50
2022-12-18T16:19:36.159Z,59.30
2022-12-18T16:24:39.730Z,50.50
2022-12-18T16:29:43.641Z,49.60
2022-12-18T16:34:47.083Z,54.50
2022-12-18T16:39:50.532Z,50.10
2022-12-18T16:44:54.009Z,56.80
2022-12-18T16:49:59.587Z,52.60
2022-12-18T16:55:02.998Z,53.10
2022-12-18T17:00:06.651Z,58.30
2022-12-18T17:05:10.202Z,52.50
2022-12-18T17:10:13.665Z,53.80
2022-12-18T17:15:17.110Z,58.60
2022-12-18T17:20:22.226Z,55.50
2022-12-18T17:25:25.650Z,61.10
2022-12-18T17:30:29.319Z,58.80
2022-12-18T17:35:32.905Z,56.20
2022-12-18T17:40:36.334Z,59.40
2022-12-18T17:45:39.772Z,62.60
2022-12-18T17:50:43.321Z,66.20
2022-12-18T17:55:46.937Z,64.10
2022-12-18T18:00:50.484Z,59.10
2022-12-18T18:05:54.083Z,62.40
2022-12-18T18:11:18.126Z,62.50
2022-12-18T18:16:21.709Z,66.60
2022-12-18T18:21:25.194Z,64.50
2022-12-18T18:26:31.135Z,64.30
2022-12-18T18:31:40.729Z,71.10
2022-12-18T18:36:45.535Z,66.70
2022-12-18T18:41:49.021Z,63.50
2022-12-18T18:46:52.712Z,66.30
2022-12-18T18:51:56.357Z,71.50
2022-12-18T19:02:23.900Z,71.60
2022-12-18T19:07:30.463Z,63.60
2022-12-18T19:12:52.437Z,71.80
2022-12-18T19:17:55.957Z,67.50
2022-12-18T19:22:59.629Z,69.10
2022-12-18T19:28:03.089Z,71.00
2022-12-18T19:33:26.793Z,70.80
2022-12-18T19:38:32.097Z,71.70
2022-12-18T19:43:36.635Z,70.80
2022-12-18T19:48:40.415Z,71.80
2022-12-18T19:53:44.157Z,76.10
2022-12-18T19:58:47.803Z,70.30
2022-12-18T20:03:52.291Z,72.40
2022-12-18T20:09:00.074Z,73.10
2022-12-18T20:14:04.395Z,85.30
2022-12-18T20:19:07.922Z,92.20
2022-12-18T20:29:15.878Z,86.80
2022-12-18T20:34:19.345Z,85.30
2022-12-18T20:39:23.888Z,81.90
2022-12-18T20:44:28.147Z,87.20
2022-12-18T20:49:31.791Z,82.70
2022-12-18T20:54:35.311Z,84.70
2022-12-18T20:59:42.064Z,85.50
2022-12-18T21:04:49.982Z,83.20
2022-12-18T21:09:53.450Z,76.10
2022-12-18T21:14:57.107Z,79.60
2022-12-18T21:20:00.593Z,77.20
2022-12-18T21:25:04.226Z,82.90
2022-12-18T21:30:07.704Z,78.50
2022-12-18T21:35:11.392Z,75.30
2022-12-18T21:40:14.880Z,80.60
2022-12-18T21:45:18.508Z,80.70
2022-12-18T21:50:22.202Z,82.60
2022-12-18T21:55:26.020Z,78.40
2022-12-18T22:00:29.515Z,80.90
2022-12-18T22:05:32.981Z,92.10
2022-12-18T22:10:36.431Z,85.40
2022-12-18T22:15:40.363Z,86.40
2022-12-18T22:20:43.868Z,87.90
2022-12-18T22:25:47.340Z,86.30
2022-12-18T22:30:59.302Z,89.00
2022-12-18T22:36:03.362Z,88.50
2022-12-18T22:41:07.321Z,91.60
2022-12-18T22:46:10.814Z,91.00
2022-12-18T22:51:14.341Z,92.50
2022-12-18T22:56:21.210Z,93.20
2022-12-18T23:01:25.109Z,87.80
2022-12-18T23:06:28.839Z,88.50
2022-12-18T23:11:32.315Z,91.40
2022-12-18T23:16:36.224Z,87.00
2022-12-18T23:21:39.742Z,89.00
2022-12-18T23:26:43.246Z,89.40
2022-12-18T23:31:46.853Z,88.20
2022-12-18T23:36:54.625Z,92.00
2022-12-18T23:41:59.694Z,88.60
2022-12-18T23:47:04.544Z,87.20
2022-12-18T23:52:07.963Z,88.80
2022-12-18T23:57:11.484Z,87.60
